Portada
METAR-TAF:

METAR-TAF

Aeropuertos :

Aeropuerto Internacional de Shanghái-Pudong

Shanghái-Pudong, China

latitud: 31-07N, longitud: 121-46E, altitud: 4 m

Observación

El informe se hizo hace 18 minutos, a las 04:30 UTC
Viento 12 kt del este-sureste
Temperatura 14°C
Humedad 58%
Presión 1032 hPa
Visibilidad 10 km o más
sin nubes por debajo de 1500 m y sin presencia de cumulonimbus.

METAR: ZSPD 200430Z 11006MPS CAVOK 14/06 Q1032 NOSIG

Hora: 12:48 (04:48 UTC)

Pronóstico

El informe se hizo hace 7 horas y 43 minutos, a las 21:05 UTC
Pronóstico válido del 20 a las 00 UTC al 20 a las 24 UTC
Viento 8 kt del este-sureste
Visibilidad: 5000 m
Cielo nuboso a una altura de 2000 ft
neblina

TAF: ZSPD 192105Z 2000/2024 12004MPS 5000 BR BKN020 TX14/2006Z TN06/2020Z

Observaciones y pronósticos meteorológicos de más de 4000 aeropuertos (mensajes METAR y TAF).

Los puntos amarillos y rojos representan las estaciones disponibles.

Ponga el ratón en el punto deseado para ver el nombre de la estación.

Haga clic para ver las observaciones y los pronósticos meteorológicos.

Para cambiar el mapa : haga clic en los botones verdes con una cruz de color negro para hacer un zoom, en el botón verde con un guión para alejar o en las flechas verdes para mapas adyacentes.


METAR-TAF: